Concepcion, Chile
Current Conditions -  °F | °C
As of 1:00 PM on Tuesday 21 Oct 2014 (Local Time) from SCIE Reporting Station
Clear Clear  
Wind Chill: 63°   Ceiling: Unl
Heat Index: 63°   Visibility: 6mi
Dew Point: 55°   Wind: 13mph
Humidity: 77%   Direction: 240°WSW
Pressure: 30"   Gusts: NA
Location:  36.83°S, 73.05°W
Report Text: SCIE 211600Z 24011KT CAVOK 17/13 Q1016
Loading
Personal Weather Stations






























Interactive Weather Map
Tropical Storm Tracking
New forecast layout! Learn more

10-Day Weather Forecast

Advertisements
Track Severe Weather on mobile